CheckWX is a tool to help pilots better visualize weather data.  It is not intended as a substitute for an official pre-flight weather briefing.

02:35:52 UTC

OIBA METAR
Abumusa Island Airport
Iran
Current

12 hours ago

OIBA 031500Z 27008KT 7000 NSC 34/29 Q0995
Observed
Jul-3 @ 15:00 UTC
Wind
  • 270° at 8 KTS
Visibility
7001 meters
Flight Rules
MVFR
Cloud Levels
  • Clear skies
Temperature
34°C / 93°F
Dewpoint
29°C / 84°F
Humidity
75%
Altimeter
29.38" Hg
Pressure
994.92 hPa
Previous

13 hours ago

OIBA 031400Z 26008KT 7000 NSC 35/28 Q0995
Observed
Jul-3 @ 14:00 UTC
Wind
  • 260° at 8 KTS
Visibility
7001 meters
Flight Rules
MVFR
Cloud Levels
  • Clear skies
Temperature
35°C / 95°F
Dewpoint
28°C / 82°F
Humidity
67%
Altimeter
29.38" Hg
Pressure
994.92 hPa
Previous

14 hours ago

OIBA 031300Z 27008KT 7000 NSC 36/28 Q0995
Observed
Jul-3 @ 13:00 UTC
Wind
  • 270° at 8 KTS
Visibility
7001 meters
Flight Rules
MVFR
Cloud Levels
  • Clear skies
Temperature
36°C / 97°F
Dewpoint
28°C / 82°F
Humidity
63%
Altimeter
29.38" Hg
Pressure
994.92 hPa